createdAt,value
2018-06-15T00:10:34.749Z,7.43
2018-06-15T00:13:03.721Z,6.40
2018-06-15T00:15:33.237Z,5.73
2018-06-15T00:18:01.988Z,7.40
2018-06-15T00:20:30.786Z,5.83
2018-06-15T00:22:59.908Z,4.20
2018-06-15T00:25:28.850Z,6.33
2018-06-15T00:27:57.452Z,5.90
2018-06-15T00:30:26.166Z,5.53
2018-06-15T00:32:54.796Z,5.60
2018-06-15T00:35:23.516Z,5.87
2018-06-15T00:37:52.735Z,5.03
2018-06-15T00:40:21.544Z,5.30
2018-06-15T00:42:50.896Z,6.40
2018-06-15T00:45:20.037Z,5.40
2018-06-15T00:47:49.444Z,5.33
2018-06-15T00:50:18.408Z,4.97
2018-06-15T00:52:47.103Z,5.77
2018-06-15T00:55:15.912Z,4.37
2018-06-15T00:57:47.316Z,5.77
2018-06-15T01:00:16.544Z,4.87
2018-06-15T01:02:45.566Z,6.50
2018-06-15T01:05:14.178Z,5.73
2018-06-15T01:07:43.125Z,5.23
2018-06-15T01:10:12.411Z,7.13
2018-06-15T01:12:41.593Z,14.03
2018-06-15T01:15:10.348Z,5.73
2018-06-15T01:17:38.960Z,7.03
2018-06-15T01:20:08.179Z,6.27
2018-06-15T01:22:37.569Z,11.60
2018-06-15T01:25:06.362Z,5.60
2018-06-15T01:27:34.987Z,5.87
2018-06-15T01:30:03.767Z,5.10
2018-06-15T01:32:32.397Z,6.17
2018-06-15T01:35:01.171Z,7.10
2018-06-15T01:37:29.857Z,8.30
2018-06-15T01:39:58.451Z,5.87
2018-06-15T01:42:27.231Z,6.07
2018-06-15T01:44:56.670Z,5.37
2018-06-15T01:47:25.806Z,6.03
2018-06-15T01:49:54.535Z,5.10
2018-06-15T01:52:23.136Z,6.93
2018-06-15T01:54:52.080Z,6.10
2018-06-15T01:57:21.590Z,7.10
2018-06-15T01:59:50.941Z,5.93
2018-06-15T02:02:20.150Z,5.97
2018-06-15T02:04:48.875Z,9.30
2018-06-15T02:07:17.576Z,7.43
2018-06-15T02:09:46.347Z,6.33
2018-06-15T02:12:15.023Z,5.97
2018-06-15T02:14:43.728Z,7.03
2018-06-15T02:17:13.578Z,5.72
2018-06-15T02:19:42.276Z,6.60
2018-06-15T02:22:10.942Z,7.87
2018-06-15T02:24:39.687Z,10.00
2018-06-15T02:27:08.408Z,9.23
2018-06-15T02:29:37.351Z,8.37
2018-06-15T02:32:06.107Z,5.90
2018-06-15T02:34:34.946Z,10.50
2018-06-15T02:37:03.583Z,10.30
2018-06-15T02:39:32.199Z,13.30
2018-06-15T02:42:00.921Z,10.63
2018-06-15T02:44:29.897Z,7.47
2018-06-15T02:46:59.258Z,10.73
2018-06-15T02:49:28.171Z,10.13
2018-06-15T02:51:56.861Z,13.23
2018-06-15T02:54:25.883Z,10.80
2018-06-15T02:56:54.550Z,10.70
2018-06-15T02:59:23.266Z,14.50
2018-06-15T03:01:52.168Z,14.73
2018-06-15T03:04:20.972Z,12.63
2018-06-15T03:06:50.243Z,10.83
2018-06-15T03:09:18.978Z,11.57
2018-06-15T03:11:47.648Z,9.63
2018-06-15T03:14:16.773Z,24.83
2018-06-15T03:16:45.601Z,8.78
2018-06-15T03:19:14.527Z,14.23
2018-06-15T03:21:43.370Z,8.15
2018-06-15T03:24:12.797Z,8.23
2018-06-15T03:26:41.978Z,9.13
2018-06-15T03:29:11.767Z,8.00
2018-06-15T03:31:40.378Z,10.50
2018-06-15T03:34:09.668Z,8.27
2018-06-15T03:36:38.446Z,8.23
2018-06-15T03:39:10.410Z,12.20
2018-06-15T03:41:39.232Z,7.43
2018-06-15T03:44:08.267Z,8.83
2018-06-15T03:46:38.256Z,8.93
2018-06-15T03:49:07.028Z,7.60
2018-06-15T03:51:36.317Z,7.50
2018-06-15T03:54:05.211Z,10.47
2018-06-15T03:56:33.871Z,7.37
2018-06-15T03:59:02.773Z,9.93
2018-06-15T04:01:33.073Z,6.53
2018-06-15T04:04:01.886Z,9.10
2018-06-15T04:06:30.564Z,7.87
2018-06-15T04:08:59.728Z,13.00
2018-06-15T04:11:28.281Z,7.73
2018-06-15T04:13:57.037Z,10.63
2018-06-15T04:16:25.754Z,6.97
2018-06-15T04:18:54.667Z,7.20
2018-06-15T04:21:24.010Z,6.92
2018-06-15T04:23:53.262Z,6.53
2018-06-15T04:26:22.237Z,6.80
2018-06-15T04:28:50.849Z,6.13
2018-06-15T04:31:19.908Z,6.93
2018-06-15T04:33:48.844Z,6.30
2018-06-15T04:36:17.829Z,6.05
2018-06-15T04:38:46.418Z,13.33
2018-06-15T04:41:15.949Z,5.90
2018-06-15T04:43:44.861Z,6.17
2018-06-15T04:46:13.768Z,6.20
2018-06-15T04:48:42.363Z,9.93
2018-06-15T04:51:11.488Z,6.85
2018-06-15T04:53:40.953Z,7.53
2018-06-15T04:56:09.662Z,7.10
2018-06-15T04:58:39.332Z,7.27
2018-06-15T05:01:08.539Z,7.30
2018-06-15T05:03:37.839Z,7.60
2018-06-15T05:06:06.912Z,10.33
2018-06-15T05:08:35.678Z,7.20
2018-06-15T05:11:04.437Z,10.55
2018-06-15T05:13:33.678Z,6.70
2018-06-15T05:16:02.439Z,9.43
2018-06-15T05:18:31.843Z,8.25
2018-06-15T05:21:01.190Z,6.70
2018-06-15T05:23:30.084Z,8.63
2018-06-15T05:25:59.676Z,11.43
2018-06-15T05:28:28.547Z,8.80
2018-06-15T05:30:57.395Z,10.90
2018-06-15T05:33:26.564Z,13.30
2018-06-15T05:35:55.837Z,10.70
2018-06-15T05:38:24.489Z,9.97
2018-06-15T05:40:53.407Z,6.97
2018-06-15T05:43:22.157Z,7.13
2018-06-15T05:45:50.894Z,10.03
2018-06-15T05:48:19.740Z,8.23
2018-06-15T05:50:48.657Z,6.42
2018-06-15T05:53:17.294Z,10.43
2018-06-15T05:55:46.982Z,9.23
2018-06-15T05:58:15.692Z,12.33
2018-06-15T06:00:44.896Z,9.57
2018-06-15T06:03:20.074Z,8.27
2018-06-15T06:05:49.327Z,13.40
2018-06-15T06:08:19.750Z,7.00
2018-06-15T06:10:49.714Z,11.43
2018-06-15T06:13:18.687Z,15.03
2018-06-15T06:15:47.970Z,11.27
2018-06-15T06:18:17.359Z,8.33
2018-06-15T06:20:46.127Z,6.87
2018-06-15T06:23:14.797Z,9.23
2018-06-15T06:25:43.592Z,6.40
2018-06-15T06:28:12.429Z,6.12
2018-06-15T06:30:41.454Z,6.83
2018-06-15T06:33:10.254Z,8.68
2018-06-15T06:35:39.804Z,9.43
2018-06-15T06:38:10.003Z,7.03
2018-06-15T06:40:38.593Z,11.25
2018-06-15T06:43:07.498Z,9.90
2018-06-15T06:45:36.115Z,8.58
2018-06-15T06:48:04.883Z,7.60
2018-06-15T06:50:33.482Z,10.10
2018-06-15T06:53:02.181Z,17.70
2018-06-15T06:55:30.845Z,9.40
2018-06-15T06:57:59.549Z,7.27
2018-06-15T07:00:29.074Z,12.50
2018-06-15T07:02:58.084Z,9.23
2018-06-15T07:05:26.904Z,13.73
2018-06-15T07:07:55.755Z,9.83
2018-06-15T07:10:24.999Z,9.33
2018-06-15T07:12:54.511Z,7.67
2018-06-15T07:15:23.475Z,7.60
2018-06-15T07:17:52.086Z,13.13
2018-06-15T07:20:20.890Z,7.53
2018-06-15T07:22:50.084Z,7.07
2018-06-15T07:25:19.784Z,12.73
2018-06-15T07:27:48.602Z,9.10
2018-06-15T07:30:17.952Z,11.10
2018-06-15T07:32:46.930Z,8.40
2018-06-15T07:35:15.511Z,8.30
2018-06-15T07:37:44.495Z,7.23
2018-06-15T07:40:13.395Z,7.77
2018-06-15T07:42:42.645Z,7.93
2018-06-15T07:45:11.360Z,7.62
2018-06-15T07:47:40.027Z,8.90
2018-06-15T07:50:08.826Z,6.50
2018-06-15T07:52:37.885Z,12.70
2018-06-15T07:55:07.380Z,6.70
2018-06-15T07:57:36.165Z,6.03
2018-06-15T08:00:05.132Z,8.40
2018-06-15T08:02:33.790Z,6.23
2018-06-15T08:05:02.565Z,9.93
2018-06-15T08:07:31.229Z,8.07
2018-06-15T08:10:00.057Z,9.93
2018-06-15T08:12:28.743Z,5.57
2018-06-15T08:14:57.476Z,6.10
2018-06-15T08:17:26.173Z,5.45
2018-06-15T08:19:55.009Z,6.20
2018-06-15T08:22:23.745Z,10.40
2018-06-15T08:24:52.583Z,9.03
2018-06-15T08:27:22.084Z,5.83
2018-06-15T08:29:50.849Z,6.87
2018-06-15T08:32:19.741Z,6.53
2018-06-15T08:34:49.043Z,5.20
2018-06-15T08:37:18.117Z,6.97
2018-06-15T08:39:46.635Z,12.83
2018-06-15T08:42:15.289Z,5.63
2018-06-15T08:44:44.130Z,6.60
2018-06-15T08:47:12.966Z,5.33
2018-06-15T08:49:41.814Z,5.20
2018-06-15T08:52:11.375Z,4.47
2018-06-15T08:54:40.714Z,4.70
2018-06-15T08:57:09.421Z,4.97
2018-06-15T08:59:38.126Z,7.55
2018-06-15T09:02:07.165Z,5.07
2018-06-15T09:04:36.111Z,5.03
2018-06-15T09:07:05.082Z,4.80
2018-06-15T09:09:34.066Z,5.07
2018-06-15T09:12:02.616Z,4.70
2018-06-15T09:14:31.453Z,4.50
2018-06-15T09:17:00.809Z,4.93
2018-06-15T09:19:29.993Z,4.60
2018-06-15T09:21:58.843Z,5.73
2018-06-15T09:24:27.468Z,5.67
2018-06-15T09:26:56.253Z,4.00
2018-06-15T09:29:24.950Z,9.40
2018-06-15T09:31:53.507Z,4.77
2018-06-15T09:34:22.150Z,5.43
2018-06-15T09:36:51.548Z,7.47
2018-06-15T09:39:20.355Z,5.40
2018-06-15T09:41:50.081Z,5.25
2018-06-15T09:44:19.266Z,5.07
2018-06-15T09:46:48.116Z,7.20
2018-06-15T09:49:16.789Z,6.90
2018-06-15T09:51:45.625Z,5.20
2018-06-15T09:54:14.239Z,5.63
2018-06-15T09:56:43.565Z,4.90
2018-06-15T09:59:12.363Z,6.00
2018-06-15T10:01:41.053Z,6.20
2018-06-15T10:04:09.689Z,5.50
2018-06-15T10:06:38.243Z,5.27
2018-06-15T10:09:07.921Z,7.08
2018-06-15T10:11:36.615Z,5.63
2018-06-15T10:14:05.320Z,4.03
2018-06-15T10:16:34.210Z,4.87
2018-06-15T10:19:03.636Z,4.20
2018-06-15T10:21:32.374Z,4.07
2018-06-15T10:24:01.120Z,6.87
2018-06-15T10:26:30.060Z,4.00
2018-06-15T10:28:58.936Z,4.50
2018-06-15T10:31:27.670Z,4.10
2018-06-15T10:33:56.838Z,3.60
2018-06-15T10:36:26.095Z,3.60
2018-06-15T10:38:54.867Z,4.40
2018-06-15T10:41:23.512Z,7.40
2018-06-15T10:43:52.791Z,3.80
2018-06-15T10:46:21.862Z,3.55
2018-06-15T10:48:50.762Z,5.13
2018-06-15T10:51:19.547Z,3.60
2018-06-15T10:53:48.360Z,3.10
2018-06-15T10:56:17.132Z,3.90
2018-06-15T10:58:46.108Z,3.23
2018-06-15T11:01:14.871Z,5.00
2018-06-15T11:03:43.500Z,3.63
2018-06-15T11:06:13.094Z,4.70
2018-06-15T11:08:41.877Z,3.93
2018-06-15T11:11:11.200Z,5.57
2018-06-15T11:13:40.489Z,4.60
2018-06-15T11:16:09.691Z,4.47
2018-06-15T11:18:38.791Z,4.63
2018-06-15T11:21:07.445Z,4.43
2018-06-15T11:23:36.340Z,4.62
2018-06-15T11:26:05.235Z,5.93
2018-06-15T11:28:34.111Z,4.08
2018-06-15T11:31:02.708Z,4.67
2018-06-15T11:33:32.194Z,4.15
2018-06-15T11:36:01.463Z,5.97
2018-06-15T11:38:30.252Z,6.10
2018-06-15T11:40:59.170Z,5.60
2018-06-15T11:43:27.842Z,4.63
2018-06-15T11:45:56.552Z,4.60
2018-06-15T11:48:25.297Z,5.50
2018-06-15T11:50:55.511Z,4.63
2018-06-15T11:53:24.340Z,5.53
2018-06-15T11:55:52.901Z,6.37
2018-06-15T11:58:21.710Z,4.10
2018-06-15T12:00:50.922Z,4.70
2018-06-15T12:03:20.382Z,5.37
2018-06-15T12:05:50.218Z,5.37
2018-06-15T12:08:19.646Z,5.70
2018-06-15T12:10:48.897Z,4.60
2018-06-15T12:13:17.657Z,5.20
2018-06-15T12:15:46.675Z,5.67
2018-06-15T12:18:15.386Z,5.30
2018-06-15T12:20:44.856Z,6.27
2018-06-15T12:23:13.681Z,5.13
2018-06-15T12:25:42.581Z,4.63
2018-06-15T12:28:11.325Z,5.90
2018-06-15T12:30:40.117Z,6.60
2018-06-15T12:33:08.933Z,9.47
2018-06-15T12:35:37.811Z,5.20
2018-06-15T12:38:06.831Z,5.60
2018-06-15T12:40:35.468Z,4.57
2018-06-15T12:43:04.585Z,5.07
2018-06-15T12:45:33.476Z,5.40
2018-06-15T12:48:02.140Z,8.33
2018-06-15T12:50:30.852Z,5.07
2018-06-15T12:52:59.566Z,6.40
2018-06-15T12:55:28.271Z,6.10
2018-06-15T12:57:57.115Z,5.60
2018-06-15T13:00:25.975Z,7.63
2018-06-15T13:02:54.732Z,4.93
2018-06-15T13:05:24.357Z,4.85
2018-06-15T13:07:53.109Z,5.40
2018-06-15T13:10:21.883Z,4.87
2018-06-15T13:12:50.558Z,4.57
2018-06-15T13:15:19.657Z,5.10
2018-06-15T13:17:48.779Z,9.20
2018-06-15T13:20:17.792Z,6.10
2018-06-15T13:22:46.720Z,5.60
2018-06-15T13:25:15.551Z,5.73
2018-06-15T13:27:44.396Z,6.13
2018-06-15T13:30:13.155Z,5.60
2018-06-15T13:32:41.858Z,5.20
2018-06-15T13:35:11.457Z,6.53
2018-06-15T13:37:40.610Z,4.67
2018-06-15T13:40:09.479Z,9.97
2018-06-15T13:42:38.195Z,5.50
2018-06-15T13:45:07.332Z,4.37
2018-06-15T13:47:35.998Z,4.87
2018-06-15T13:50:05.160Z,4.43
2018-06-15T13:52:34.116Z,4.97
2018-06-15T13:55:02.982Z,5.40
2018-06-15T13:57:32.507Z,5.40
2018-06-15T14:00:01.947Z,4.67
2018-06-15T14:02:32.116Z,9.00
2018-06-15T14:05:01.106Z,8.13
2018-06-15T14:07:30.573Z,6.03
2018-06-15T14:10:00.722Z,6.43
2018-06-15T14:12:29.936Z,5.03
2018-06-15T14:14:58.969Z,5.80
2018-06-15T14:17:27.851Z,4.40
2018-06-15T14:19:56.471Z,5.28
2018-06-15T14:22:25.270Z,5.27
2018-06-15T14:24:54.032Z,5.43
2018-06-15T14:27:22.809Z,7.03
2018-06-15T14:29:51.662Z,4.85
2018-06-15T14:32:20.599Z,4.43
2018-06-15T14:34:49.489Z,6.90
2018-06-15T14:37:18.294Z,4.57
2018-06-15T14:39:47.550Z,5.07
2018-06-15T14:42:16.302Z,4.60
2018-06-15T14:44:44.898Z,5.72
2018-06-15T14:47:14.254Z,4.97
2018-06-15T14:49:43.292Z,5.73
2018-06-15T14:52:12.570Z,4.13
2018-06-15T14:54:41.646Z,4.90
2018-06-15T14:57:10.519Z,5.50
2018-06-15T14:59:40.196Z,5.07
2018-06-15T15:02:09.334Z,4.93
2018-06-15T15:04:39.728Z,5.50
2018-06-15T15:07:08.826Z,5.33
2018-06-15T15:09:40.941Z,5.80
2018-06-15T15:12:09.805Z,4.73
2018-06-15T15:21:20.802Z,5.03
2018-06-15T15:23:50.121Z,5.60
2018-06-15T15:26:19.332Z,5.08
2018-06-15T15:28:48.562Z,4.60
2018-06-15T15:31:17.697Z,11.10
2018-06-15T15:33:46.772Z,4.60
2018-06-15T15:36:15.546Z,4.60
2018-06-15T15:38:45.578Z,5.63
2018-06-15T15:41:14.363Z,4.60
2018-06-15T15:43:43.877Z,4.77
2018-06-15T15:46:12.827Z,4.20
2018-06-15T15:48:41.617Z,6.17
2018-06-15T15:51:10.711Z,4.95
2018-06-15T15:53:39.803Z,4.80
2018-06-15T15:56:08.945Z,4.70
2018-06-15T15:58:38.278Z,4.87
2018-06-15T16:01:08.042Z,5.07
2018-06-15T16:03:36.873Z,5.17
2018-06-15T16:06:06.005Z,5.83
2018-06-15T16:08:35.064Z,5.70
2018-06-15T16:11:03.984Z,5.27
2018-06-15T16:13:33.745Z,5.20
2018-06-15T16:16:03.006Z,7.23
2018-06-15T16:18:32.029Z,5.03
2018-06-15T16:21:00.990Z,5.13
2018-06-15T16:23:29.768Z,11.37
2018-06-15T16:25:58.733Z,23.33
2018-06-15T16:28:27.947Z,16.30
2018-06-15T16:30:56.657Z,6.00
2018-06-15T16:33:25.502Z,7.00
2018-06-15T16:35:54.545Z,8.93
2018-06-15T16:38:23.773Z,4.37
2018-06-15T16:40:52.769Z,5.10
2018-06-15T16:43:21.615Z,4.60
2018-06-15T16:45:50.610Z,5.00
2018-06-15T16:48:19.412Z,5.60
2018-06-15T16:50:49.168Z,5.60
2018-06-15T16:53:17.900Z,7.57
2018-06-15T16:55:46.613Z,4.63
2018-06-15T16:58:15.317Z,7.33
2018-06-15T17:00:44.818Z,4.75
2018-06-15T17:03:15.311Z,6.90
2018-06-15T17:05:43.987Z,8.50
2018-06-15T17:08:12.731Z,4.33
2018-06-15T17:10:42.354Z,4.50
2018-06-15T17:13:11.185Z,4.70
2018-06-15T17:15:41.187Z,4.50
2018-06-15T17:18:10.073Z,4.80
2018-06-15T17:20:38.671Z,5.22
2018-06-15T17:23:07.964Z,4.27
2018-06-15T17:25:37.105Z,4.50
2018-06-15T17:28:06.008Z,5.10
2018-06-15T17:30:34.843Z,5.70
2018-06-15T17:33:03.621Z,6.50
2018-06-15T17:35:33.033Z,6.43
2018-06-15T17:38:02.381Z,8.10
2018-06-15T17:40:31.503Z,5.00
2018-06-15T17:43:00.954Z,11.90
2018-06-15T17:45:30.372Z,6.80
2018-06-15T17:47:59.496Z,7.73
2018-06-15T17:50:28.503Z,8.20
2018-06-15T17:52:57.574Z,5.27
2018-06-15T17:55:26.909Z,5.67
2018-06-15T17:57:55.932Z,5.20
2018-06-15T18:00:25.303Z,6.83
2018-06-15T18:02:54.390Z,5.67
2018-06-15T18:05:23.714Z,5.53
2018-06-15T18:07:53.072Z,5.33
2018-06-15T18:10:22.229Z,6.03
2018-06-15T18:12:51.349Z,5.30
2018-06-15T18:15:20.507Z,7.10
2018-06-15T18:17:49.879Z,6.77
2018-06-15T18:20:19.039Z,9.20
2018-06-15T18:22:48.103Z,9.40
2018-06-15T18:25:17.557Z,5.23
2018-06-15T18:27:47.005Z,8.63
2018-06-15T18:30:16.903Z,5.97
2018-06-15T18:32:45.880Z,8.97
2018-06-15T18:35:15.038Z,7.17
2018-06-15T18:37:46.650Z,6.30
2018-06-15T18:40:15.668Z,14.57
2018-06-15T18:42:45.003Z,5.97
2018-06-15T18:45:14.328Z,20.37
2018-06-15T18:47:43.137Z,11.00
2018-06-15T18:50:12.341Z,5.85
2018-06-15T18:52:41.422Z,5.83
2018-06-15T18:55:10.375Z,6.08
2018-06-15T18:57:39.244Z,6.08
2018-06-15T19:00:09.070Z,7.70
2018-06-15T19:02:38.223Z,6.47
2018-06-15T19:05:08.105Z,10.23
2018-06-15T19:07:37.179Z,14.10
2018-06-15T19:10:06.184Z,7.00
2018-06-15T19:12:35.702Z,6.90
2018-06-15T19:15:05.298Z,7.60
2018-06-15T19:17:34.225Z,7.63
2018-06-15T19:20:04.232Z,9.77
2018-06-15T19:22:33.635Z,10.93
2018-06-15T19:25:02.869Z,7.73
2018-06-15T19:27:32.056Z,7.17
2018-06-15T19:30:00.803Z,8.63
2018-06-15T19:32:29.643Z,9.15
2018-06-15T19:34:58.618Z,9.77
2018-06-15T19:37:28.585Z,7.10
2018-06-15T19:39:57.788Z,9.13
2018-06-15T19:42:27.263Z,10.10
2018-06-15T19:44:56.450Z,9.83
2018-06-15T19:47:25.787Z,7.60
2018-06-15T19:49:54.845Z,8.00
2018-06-15T19:52:24.139Z,12.17
2018-06-15T19:54:53.239Z,10.93
2018-06-15T19:57:22.689Z,8.27
2018-06-15T19:59:51.694Z,10.43
2018-06-15T20:02:21.098Z,10.17
2018-06-15T20:04:50.385Z,23.80
2018-06-15T20:07:19.550Z,14.63
2018-06-15T20:09:48.925Z,13.37
2018-06-15T20:12:17.968Z,8.90
2018-06-15T20:14:47.152Z,10.40
2018-06-15T20:17:16.349Z,9.30
2018-06-15T20:19:45.582Z,8.20
2018-06-15T20:22:15.027Z,10.10
2018-06-15T20:24:44.193Z,9.17
2018-06-15T20:27:13.417Z,15.53
2018-06-15T20:29:42.704Z,15.18
2018-06-15T20:32:11.933Z,9.97
2018-06-15T20:34:41.143Z,10.43
2018-06-15T20:37:11.117Z,10.30
2018-06-15T20:39:40.529Z,10.23
2018-06-15T20:42:09.484Z,10.03
2018-06-15T20:44:38.355Z,10.43
2018-06-15T20:47:07.948Z,14.18
2018-06-15T20:49:36.717Z,10.03
2018-06-15T20:52:06.574Z,11.00
2018-06-15T20:54:35.685Z,9.57
2018-06-15T20:57:04.295Z,10.07
2018-06-15T20:59:33.132Z,10.67
2018-06-15T21:02:01.985Z,10.53
2018-06-15T21:04:31.664Z,9.40
2018-06-15T21:07:00.663Z,9.80
2018-06-15T21:09:29.959Z,10.03
2018-06-15T21:11:59.173Z,11.93
2018-06-15T21:14:28.521Z,10.50
2018-06-15T21:16:57.568Z,9.63
2018-06-15T21:19:27.077Z,9.73
2018-06-15T21:21:56.160Z,10.50
2018-06-15T21:24:24.935Z,10.83
2018-06-15T21:26:53.847Z,12.63
2018-06-15T21:29:22.675Z,9.40
2018-06-15T21:31:52.289Z,11.27
2018-06-15T21:34:21.171Z,11.20
2018-06-15T21:36:50.115Z,11.27
2018-06-15T21:39:18.895Z,12.10
2018-06-15T21:41:47.843Z,12.23
2018-06-15T21:44:16.853Z,12.60
2018-06-15T21:46:45.700Z,10.77
2018-06-15T21:49:14.628Z,12.57
2018-06-15T21:51:43.989Z,16.15
2018-06-15T21:54:12.723Z,11.70
2018-06-15T21:56:41.383Z,12.67
2018-06-15T21:59:10.619Z,11.57
2018-06-15T22:01:39.393Z,12.80
2018-06-15T22:04:08.797Z,15.28
2018-06-15T22:06:37.551Z,12.93
2018-06-15T22:09:07.939Z,12.07
2018-06-15T22:11:36.542Z,11.10
2018-06-15T22:14:06.653Z,12.80
2018-06-15T22:16:41.264Z,12.90
2018-06-15T22:19:10.114Z,16.50
2018-06-15T22:21:38.717Z,12.77
2018-06-15T22:24:07.600Z,13.13
2018-06-15T22:26:36.380Z,11.83
2018-06-15T22:29:05.985Z,12.37
2018-06-15T22:31:34.817Z,14.20
2018-06-15T22:34:03.664Z,12.47
2018-06-15T22:36:32.491Z,20.00
2018-06-15T22:39:01.303Z,12.93
2018-06-15T22:41:30.301Z,12.03
2018-06-15T22:43:59.017Z,12.78
2018-06-15T22:46:28.508Z,13.03
2018-06-15T22:48:57.229Z,12.20
2018-06-15T22:51:26.055Z,12.53
2018-06-15T22:53:54.974Z,12.53
2018-06-15T22:56:24.610Z,19.87
2018-06-15T22:58:53.362Z,12.97
2018-06-15T23:01:21.939Z,11.07
2018-06-15T23:03:50.614Z,12.37
2018-06-15T23:06:19.214Z,11.80
2018-06-15T23:08:47.820Z,11.77
2018-06-15T23:11:16.491Z,13.13
2018-06-15T23:13:45.071Z,13.43
2018-06-15T23:16:14.674Z,12.67
2018-06-15T23:18:43.320Z,11.57
2018-06-15T23:21:12.024Z,11.93
2018-06-15T23:23:41.091Z,11.67
2018-06-15T23:26:09.916Z,11.70
2018-06-15T23:28:38.438Z,12.57
2018-06-15T23:31:07.914Z,12.00
2018-06-15T23:33:36.665Z,14.00
2018-06-15T23:36:05.345Z,13.03
2018-06-15T23:38:34.153Z,16.00
2018-06-15T23:41:02.689Z,13.10
2018-06-15T23:43:31.684Z,11.60
2018-06-15T23:46:00.351Z,12.50
2018-06-15T23:48:29.381Z,16.62
2018-06-15T23:50:58.007Z,12.30
2018-06-15T23:53:26.780Z,12.40
2018-06-15T23:55:55.384Z,13.77
2018-06-15T23:58:24.150Z,14.20
